< < Back
Terminal Aerodrome Forecast


Current Version              Previous Versions:   1  2  3  4  5  6  7  8  9  

Terminal Aerodrome Forecast

048
FTUS42 KFFC 240500
TAFAHN
TAF
KAHN 240538Z 2406/2506 00000KT P6SM FEW035
     FM240900 23003KT 6SM BR SCT025
     FM241500 26006KT P6SM BKN035
     FM241700 26008G16KT P6SM VCSH BKN045 PROB30 2418/2423 5SM TSRA
      BR BKN025CB
     FM242300 29006KT P6SM VCSH SCT050 BKN100
     FM250300 28004KT P6SM SCT120 BKN250=

Latest METAR

460
SAUS70 KWBC 240600 RRA
MTRAHN
METAR KAHN 240551Z AUTO 00000KT 10SM CLR 23/22 A2999 RMK AO2 SLP147
60003 T02330222 10294 20233 58002


USA.gov is the U.S. government's official web portal to all federal, state and local government web resources and services.